createdAt,value
2019-04-23T00:04:00.943Z,49.40
2019-04-23T00:06:33.790Z,48.50
2019-04-23T00:09:19.169Z,49.60
2019-04-23T00:14:11.544Z,49.70
2019-04-23T00:16:42.554Z,49.60
2019-04-23T00:19:12.022Z,49.00
2019-04-23T00:21:55.143Z,50.20
2019-04-23T00:24:46.659Z,49.70
2019-04-23T00:27:17.326Z,49.80
2019-04-23T00:29:37.421Z,49.70
2019-04-23T00:32:10.367Z,50.60
2019-04-23T00:34:42.668Z,51.50
2019-04-23T00:37:18.727Z,50.30
2019-04-23T00:39:42.368Z,51.20
2019-04-23T00:42:17.142Z,50.30
2019-04-23T00:44:47.808Z,51.50
2019-04-23T00:47:22.829Z,50.70
2019-04-23T00:49:50.898Z,50.50
2019-04-23T00:52:22.149Z,50.60
2019-04-23T00:54:57.973Z,51.70
2019-04-23T00:57:25.831Z,52.50
2019-04-23T01:00:03.448Z,51.60
2019-04-23T01:02:26.345Z,52.40
2019-04-23T01:04:59.672Z,51.20
2019-04-23T01:07:28.574Z,52.20
2019-04-23T01:12:37.733Z,52.70
2019-04-23T01:15:15.715Z,52.70
2019-04-23T01:17:39.546Z,52.10
2019-04-23T01:20:14.180Z,53.70
2019-04-23T01:22:25.641Z,52.30
2019-04-23T01:25:07.280Z,53.40
2019-04-23T01:27:55.893Z,52.30
2019-04-23T01:30:41.094Z,52.30
2019-04-23T01:32:54.633Z,52.70
2019-04-23T01:35:28.350Z,53.60
2019-04-23T01:38:04.808Z,53.20
2019-04-23T01:40:36.856Z,53.70
2019-04-23T01:43:02.753Z,54.10
2019-04-23T01:45:30.730Z,53.80
2019-04-23T01:48:11.087Z,53.30
2019-04-23T01:50:52.132Z,53.10
2019-04-23T01:55:49.794Z,55.50
2019-04-23T01:58:32.231Z,53.70
2019-04-23T02:01:07.177Z,55.10
2019-04-23T02:03:20.866Z,53.70
2019-04-23T02:06:13.337Z,54.70
2019-04-23T02:08:26.246Z,53.90
2019-04-23T02:11:04.828Z,53.90
2019-04-23T02:15:57.284Z,54.40
2019-04-23T02:18:52.855Z,54.20
2019-04-23T02:21:10.612Z,53.60
2019-04-23T02:23:44.311Z,53.50
2019-04-23T02:26:15.192Z,56.00
2019-04-23T02:29:07.584Z,54.40
2019-04-23T02:31:44.531Z,56.10
2019-04-23T02:34:00.498Z,55.80
2019-04-23T02:36:32.258Z,54.40
2019-04-23T02:38:56.148Z,54.60
2019-04-23T02:44:11.481Z,55.70
2019-04-23T02:46:31.712Z,55.70
2019-04-23T02:54:16.052Z,55.90
2019-04-23T02:56:46.301Z,57.40
2019-04-23T02:59:21.864Z,55.50
2019-04-23T03:04:26.532Z,56.90
2019-04-23T03:06:56.449Z,56.30
2019-04-23T03:09:31.660Z,59.50
2019-04-23T03:14:27.146Z,57.40
2019-04-23T03:19:52.323Z,56.10
2019-04-23T03:22:35.117Z,56.50
2019-04-23T03:27:50.004Z,57.40
2019-04-23T03:30:48.249Z,57.10
2019-04-23T03:38:13.946Z,63.70
2019-04-23T03:40:34.865Z,58.40
2019-04-23T03:43:10.488Z,58.90
2019-04-23T03:45:49.170Z,57.50
2019-04-23T03:48:17.751Z,61.30
2019-04-23T03:50:53.722Z,57.50
2019-04-23T03:53:29.920Z,59.00
2019-04-23T03:55:59.581Z,60.70
2019-04-23T03:58:41.394Z,59.00
2019-04-23T04:06:05.515Z,60.10
2019-04-23T04:16:01.309Z,60.00
2019-04-23T04:18:37.827Z,59.40
2019-04-23T04:21:09.626Z,58.90
2019-04-23T04:23:43.474Z,59.50
2019-04-23T04:31:30.885Z,62.30
2019-04-23T04:44:47.363Z,60.70
2019-04-23T04:46:34.567Z,60.20
2019-04-23T04:51:27.103Z,63.50
2019-04-23T04:54:00.909Z,60.10
2019-04-23T04:56:29.303Z,60.70
2019-04-23T04:59:05.254Z,61.50
2019-04-23T05:01:25.477Z,60.00
2019-04-23T05:03:58.251Z,60.00
2019-04-23T05:06:24.770Z,61.30
2019-04-23T05:09:00.675Z,60.10
2019-04-23T05:11:39.015Z,60.70
2019-04-23T05:14:08.136Z,61.00
2019-04-23T05:16:35.613Z,61.50
2019-04-23T05:19:19.805Z,60.50
2019-04-23T05:21:46.887Z,60.30
2019-04-23T05:24:08.560Z,64.30
2019-04-23T05:26:53.619Z,62.30
2019-04-23T05:29:29.112Z,62.20
2019-04-23T05:31:32.863Z,63.00
2019-04-23T05:34:10.015Z,65.90
2019-04-23T05:36:45.415Z,62.90
2019-04-23T05:39:20.849Z,61.40
2019-04-23T05:41:45.284Z,63.80
2019-04-23T05:44:21.100Z,63.60
2019-04-23T05:47:11.496Z,61.90
2019-04-23T05:49:43.084Z,61.80
2019-04-23T05:51:57.358Z,62.80
2019-04-23T05:54:26.623Z,62.40
2019-04-23T05:56:55.257Z,62.10
2019-04-23T05:59:33.047Z,62.20
2019-04-23T06:02:05.174Z,63.60
2019-04-23T06:07:16.993Z,62.60
2019-04-23T06:09:53.163Z,63.20
2019-04-23T06:12:18.785Z,62.90
2019-04-23T06:14:48.242Z,62.90
2019-04-23T06:19:45.405Z,62.40
2019-04-23T06:24:45.072Z,61.00
2019-04-23T06:27:21.740Z,60.90
2019-04-23T06:29:43.134Z,60.20
2019-04-23T06:32:22.253Z,59.90
2019-04-23T06:34:54.998Z,60.40
2019-04-23T06:37:27.692Z,61.40
2019-04-23T06:39:55.149Z,61.40
2019-04-23T06:42:23.502Z,62.10
2019-04-23T06:44:58.440Z,63.40
2019-04-23T06:47:25.991Z,61.90
2019-04-23T06:50:00.093Z,61.40
2019-04-23T06:52:24.846Z,61.30
2019-04-23T06:55:01.077Z,61.90
2019-04-23T06:57:33.579Z,60.20
2019-04-23T07:00:08.405Z,59.30
2019-04-23T07:02:37.663Z,59.80
2019-04-23T07:05:10.374Z,60.20
2019-04-23T07:10:15.819Z,60.60
2019-04-23T07:12:44.809Z,60.20
2019-04-23T07:15:30.952Z,59.70
2019-04-23T07:17:40.616Z,59.60
2019-04-23T07:22:49.969Z,59.90
2019-04-23T07:25:17.707Z,59.70
2019-04-23T07:27:47.640Z,59.80
2019-04-23T07:30:29.950Z,59.70
2019-04-23T07:33:01.172Z,59.70
2019-04-23T07:35:25.725Z,60.00
2019-04-23T07:38:06.108Z,60.00
2019-04-23T07:40:33.565Z,60.10
2019-04-23T07:43:15.560Z,59.70
2019-04-23T07:46:12.243Z,58.90
2019-04-23T07:48:32.550Z,59.00
2019-04-23T07:50:59.005Z,58.50
2019-04-23T07:53:44.051Z,58.50
2019-04-23T07:56:07.562Z,58.00
2019-04-23T07:58:33.183Z,58.60
2019-04-23T08:01:13.815Z,58.30
2019-04-23T08:03:45.125Z,58.50
2019-04-23T08:06:12.090Z,59.40
2019-04-23T08:08:48.802Z,58.40
2019-04-23T08:13:56.983Z,58.90
2019-04-23T08:18:53.846Z,57.60
2019-04-23T08:21:28.564Z,57.40
2019-04-23T08:24:06.619Z,58.10
2019-04-23T08:29:26.759Z,58.90
2019-04-23T08:34:35.773Z,58.20
2019-04-23T08:39:39.788Z,58.50
2019-04-23T08:42:27.102Z,57.10
2019-04-23T08:45:05.087Z,57.70
2019-04-23T08:52:16.678Z,56.80
2019-04-23T08:55:02.625Z,56.50
2019-04-23T08:57:21.457Z,56.20
2019-04-23T08:59:53.222Z,56.20
2019-04-23T09:02:31.263Z,56.30
2019-04-23T09:04:54.161Z,56.90
2019-04-23T09:07:29.772Z,56.60
2019-04-23T09:09:57.231Z,56.20
2019-04-23T09:12:28.339Z,56.30
2019-04-23T09:15:04.009Z,55.80
2019-04-23T09:17:34.644Z,56.50
2019-04-23T09:22:34.730Z,55.50
2019-04-23T09:27:36.582Z,55.50
2019-04-23T09:30:07.821Z,55.60
2019-04-23T09:35:24.030Z,55.70
2019-04-23T09:37:59.678Z,55.40
2019-04-23T09:41:08.452Z,55.20
2019-04-23T09:43:27.035Z,54.90
2019-04-23T09:46:17.449Z,55.00
2019-04-23T09:48:50.953Z,55.30
2019-04-23T09:51:17.407Z,55.30
2019-04-23T09:53:40.687Z,54.70
2019-04-23T09:56:14.154Z,55.10
2019-04-23T09:58:59.109Z,55.00
2019-04-23T10:03:52.113Z,54.10
2019-04-23T10:06:16.121Z,55.10
2019-04-23T10:08:46.809Z,53.80
2019-04-23T10:11:12.225Z,53.90
2019-04-23T10:13:44.804Z,53.40
2019-04-23T10:16:17.133Z,53.80
2019-04-23T10:18:47.035Z,54.20
2019-04-23T10:21:17.526Z,53.70
2019-04-23T10:23:47.568Z,53.90
2019-04-23T10:26:17.282Z,53.50
2019-04-23T10:28:49.766Z,53.20
2019-04-23T10:31:21.090Z,54.20
2019-04-23T10:33:52.246Z,53.70
2019-04-23T10:36:25.868Z,54.20
2019-04-23T10:39:00.594Z,53.70
2019-04-23T10:41:25.771Z,52.10
2019-04-23T10:44:00.752Z,52.50
2019-04-23T10:46:53.621Z,52.10
2019-04-23T10:54:48.525Z,51.70
2019-04-23T10:59:47.332Z,50.10
2019-04-23T11:17:52.047Z,49.00
2019-04-23T11:20:25.826Z,50.00
2019-04-23T11:22:48.130Z,49.60
2019-04-23T11:25:31.288Z,50.50
2019-04-23T11:27:52.413Z,49.90
2019-04-23T11:30:36.500Z,49.80
2019-04-23T11:33:02.755Z,49.20
2019-04-23T11:35:31.300Z,49.10
2019-04-23T11:40:25.517Z,49.70
2019-04-23T11:43:09.712Z,49.70
2019-04-23T11:51:15.839Z,49.50
2019-04-23T11:51:15.839Z,49.00
2019-04-23T11:53:18.436Z,49.20
2019-04-23T11:55:48.689Z,49.20
2019-04-23T12:01:02.471Z,49.30
2019-04-23T12:03:19.649Z,49.40
2019-04-23T12:06:12.076Z,48.40
2019-04-23T12:08:44.710Z,48.20
2019-04-23T12:11:50.247Z,48.20
2019-04-23T12:14:15.999Z,47.60
2019-04-23T12:16:45.029Z,47.50
2019-04-23T12:19:28.033Z,47.30
2019-04-23T12:21:44.003Z,47.10
2019-04-23T12:24:16.267Z,47.80
2019-04-23T12:26:44.406Z,48.10
2019-04-23T12:29:25.619Z,46.60
2019-04-23T12:31:47.749Z,46.30
2019-04-23T12:34:20.646Z,47.00
2019-04-23T12:39:23.189Z,46.50
2019-04-23T12:41:54.608Z,46.60
2019-04-23T12:44:22.069Z,46.60
2019-04-23T12:46:57.545Z,47.10
2019-04-23T12:49:44.606Z,46.50
2019-04-23T12:52:02.789Z,46.50
2019-04-23T12:54:41.262Z,46.40
2019-04-23T12:57:04.821Z,47.10
2019-04-23T12:59:36.812Z,46.50
2019-04-23T13:02:19.889Z,46.90
2019-04-23T13:04:43.930Z,47.00
2019-04-23T13:07:09.064Z,47.10
2019-04-23T13:09:54.103Z,47.40
2019-04-23T13:12:32.832Z,47.60
2019-04-23T13:14:56.793Z,47.00
2019-04-23T13:17:48.953Z,47.10
2019-04-23T13:22:31.541Z,46.60
2019-04-23T13:25:09.265Z,46.30
2019-04-23T13:27:55.586Z,47.00
2019-04-23T13:30:23.173Z,45.50
2019-04-23T13:32:55.303Z,45.50
2019-04-23T13:37:59.320Z,44.10
2019-04-23T13:40:27.733Z,44.10
2019-04-23T13:43:01.002Z,43.70
2019-04-23T13:45:53.031Z,43.00
2019-04-23T13:48:03.493Z,43.30
2019-04-23T13:50:47.798Z,42.00
2019-04-23T13:55:30.315Z,40.30
2019-04-23T14:03:17.609Z,39.70
2019-04-23T14:06:10.710Z,39.90
2019-04-23T14:08:30.601Z,40.10
2019-04-23T14:11:02.273Z,40.60
2019-04-23T14:13:37.284Z,41.10
2019-04-23T14:16:04.658Z,41.60
2019-04-23T14:18:53.973Z,41.50
2019-04-23T14:21:08.632Z,42.10
2019-04-23T14:23:52.474Z,42.20
2019-04-23T14:33:46.899Z,42.20
2019-04-23T14:36:17.730Z,42.20
2019-04-23T14:38:45.818Z,42.00
2019-04-23T14:46:41.404Z,42.40
2019-04-23T14:48:52.114Z,42.90
2019-04-23T14:53:48.338Z,43.60
2019-04-23T14:56:23.904Z,44.00
2019-04-23T14:59:07.372Z,44.30
2019-04-23T15:03:57.540Z,44.50
2019-04-23T15:09:19.666Z,45.70
2019-04-23T15:14:06.566Z,46.20
2019-04-23T15:16:39.146Z,46.60
2019-04-23T15:29:01.390Z,47.40
2019-04-23T15:31:55.457Z,47.40
2019-04-23T15:42:00.823Z,48.30
2019-04-23T15:44:16.361Z,48.20
2019-04-23T15:46:57.206Z,48.70
2019-04-23T15:49:29.782Z,48.90
2019-04-23T15:51:56.707Z,48.40
2019-04-23T15:54:35.402Z,48.80
2019-04-23T15:57:05.855Z,48.50
2019-04-23T16:01:41.848Z,48.70
2019-04-23T16:04:08.758Z,48.60
2019-04-23T16:06:38.929Z,48.60
2019-04-23T16:09:36.176Z,49.00
2019-04-23T16:12:06.212Z,49.20
2019-04-23T16:14:49.411Z,49.00
2019-04-23T16:17:24.025Z,50.00
2019-04-23T16:20:19.108Z,49.40
2019-04-23T16:22:36.731Z,49.70
2019-04-23T16:27:34.936Z,49.80
2019-04-23T16:30:17.384Z,50.00
2019-04-23T16:32:54.298Z,50.40
2019-04-23T16:35:28.276Z,50.50
2019-04-23T16:38:01.411Z,50.50
2019-04-23T16:42:59.694Z,51.00
2019-04-23T16:45:29.380Z,51.10
2019-04-23T16:47:56.575Z,51.00
2019-04-23T16:50:30.977Z,51.00
2019-04-23T16:53:03.961Z,52.30
2019-04-23T16:55:30.578Z,51.50
2019-04-23T16:58:23.157Z,51.70
2019-04-23T17:00:43.740Z,51.90
2019-04-23T17:03:19.378Z,51.70
2019-04-23T17:05:39.318Z,51.80
2019-04-23T17:08:35.831Z,51.70
2019-04-23T17:10:45.760Z,52.10
2019-04-23T17:13:24.037Z,52.20
2019-04-23T17:18:24.546Z,52.40
2019-04-23T17:20:52.832Z,52.90
2019-04-23T17:23:34.589Z,52.80
2019-04-23T17:25:55.640Z,52.90
2019-04-23T17:31:26.338Z,53.70
2019-04-23T17:33:51.902Z,53.90
2019-04-23T17:36:26.625Z,54.60
2019-04-23T17:41:41.706Z,54.90
2019-04-23T17:44:18.898Z,55.60
2019-04-23T17:46:43.178Z,55.70
2019-04-23T17:49:10.821Z,55.10
2019-04-23T17:51:42.622Z,55.30
2019-04-23T17:56:54.141Z,56.20
2019-04-23T18:01:59.225Z,56.90
2019-04-23T18:04:30.746Z,56.20
2019-04-23T18:06:52.368Z,56.60
2019-04-23T18:09:32.793Z,57.50
2019-04-23T18:11:54.347Z,56.90
2019-04-23T18:14:16.551Z,57.00
2019-04-23T18:16:57.526Z,56.90
2019-04-23T18:19:24.528Z,58.40
2019-04-23T18:24:59.369Z,58.60
2019-04-23T18:27:26.250Z,58.50
2019-04-23T18:30:09.943Z,58.60
2019-04-23T18:32:43.412Z,58.40
2019-04-23T18:40:05.197Z,60.70
2019-04-23T18:42:46.414Z,60.60
2019-04-23T18:45:24.472Z,60.30
2019-04-23T18:47:51.921Z,61.60
2019-04-23T18:50:26.884Z,64.30
2019-04-23T18:55:41.236Z,63.00
2019-04-23T18:57:51.883Z,62.80
2019-04-23T19:00:37.280Z,62.40
2019-04-23T19:03:11.934Z,62.60
2019-04-23T19:06:10.485Z,62.90
2019-04-23T19:08:52.096Z,62.90
2019-04-23T19:11:09.162Z,63.50
2019-04-23T19:13:32.892Z,63.60
2019-04-23T19:16:04.028Z,64.10
2019-04-23T19:18:43.093Z,63.90
2019-04-23T19:23:46.913Z,64.60
2019-04-23T19:26:27.441Z,65.90
2019-04-23T19:28:52.961Z,65.30
2019-04-23T19:34:21.329Z,66.90
2019-04-23T19:36:52.576Z,67.30
2019-04-23T19:39:19.312Z,67.60
2019-04-23T19:44:31.348Z,68.40
2019-04-23T19:46:56.174Z,67.70
2019-04-23T19:49:19.686Z,68.00
2019-04-23T19:54:25.989Z,69.30
2019-04-23T19:57:04.743Z,69.30
2019-04-23T19:59:23.440Z,69.40
2019-04-23T20:04:32.183Z,69.70
2019-04-23T20:14:41.659Z,69.20
2019-04-23T20:22:06.207Z,71.00
2019-04-23T20:24:55.473Z,69.90
2019-04-23T20:27:06.203Z,70.90
2019-04-23T20:35:00.390Z,70.60
2019-04-23T20:37:44.579Z,72.10
2019-04-23T20:39:58.265Z,69.20
2019-04-23T20:42:27.178Z,70.00
2019-04-23T20:45:02.591Z,70.70
2019-04-23T20:47:32.620Z,70.70
2019-04-23T20:50:03.418Z,71.90
2019-04-23T20:52:29.243Z,70.30
2019-04-23T20:57:45.444Z,69.40
2019-04-23T21:00:20.545Z,70.60
2019-04-23T21:03:30.442Z,67.70
2019-04-23T21:05:27.684Z,68.40
2019-04-23T21:08:28.398Z,68.30
2019-04-23T21:10:42.965Z,67.00
2019-04-23T21:13:15.768Z,66.50
2019-04-23T21:20:55.040Z,66.50
2019-04-23T21:23:29.916Z,65.40
2019-04-23T21:31:06.355Z,66.30
2019-04-23T21:33:35.386Z,67.90
2019-04-23T21:36:13.955Z,65.40
2019-04-23T21:51:38.400Z,66.70
2019-04-23T21:53:55.519Z,67.20
2019-04-23T21:56:35.380Z,64.90
2019-04-23T22:01:36.702Z,65.00
2019-04-23T22:06:43.337Z,64.20
2019-04-23T22:09:12.391Z,65.60
2019-04-23T22:19:20.257Z,64.70
2019-04-23T22:21:47.485Z,63.60
2019-04-23T22:31:47.380Z,63.40
2019-04-23T22:34:22.010Z,63.90
2019-04-23T22:36:56.278Z,63.90
2019-04-23T22:39:25.374Z,64.20
2019-04-23T22:41:55.864Z,64.70
2019-04-23T22:44:34.063Z,65.10
2019-04-23T22:47:02.221Z,65.90
2019-04-23T22:49:57.229Z,66.70
2019-04-23T22:54:39.801Z,66.60
2019-04-23T22:57:26.172Z,67.00
2019-04-23T22:59:48.524Z,66.40
2019-04-23T23:02:36.649Z,66.00
2019-04-23T23:05:09.923Z,67.00
2019-04-23T23:07:39.661Z,66.00
2019-04-23T23:10:08.439Z,65.20
2019-04-23T23:12:55.966Z,64.70
2019-04-23T23:17:54.604Z,64.80
2019-04-23T23:22:52.283Z,64.90
2019-04-23T23:25:20.563Z,66.80
2019-04-23T23:27:54.258Z,65.30
2019-04-23T23:30:23.398Z,65.70
2019-04-23T23:32:55.580Z,65.70
2019-04-23T23:35:22.337Z,65.90
2019-04-23T23:37:56.540Z,67.60
2019-04-23T23:40:25.527Z,67.70
2019-04-23T23:43:05.773Z,65.60
2019-04-23T23:45:31.405Z,69.00
2019-04-23T23:55:27.868Z,66.50
2019-04-23T23:58:10.744Z,66.60
